Time;durP1;ratioP1;P1;durP2;ratioP2;P2;SDS_P1;SDS_P2;PMS_P1;PMS_P2;Temp;Humidity;BMP_temperature;BMP_pressure;BME280_temperature;BME280_humidity;BME280_pressure;Samples;Min_cycle;Max_cycle;Signal;HPM_P1;HPM_P2
2021/06/23 04:16:32;;;;;;;4.32;3.75;;;;;;;15.63;100.00;98830.00;5469185;23;20062;-69
2021/06/23 04:18:57;;;;;;;9.93;4.43;;;;;;;15.63;100.00;98830.00;4976093;28;20043;-69
2021/06/23 04:21:23;;;;;;;8.90;4.45;;;;;;;15.68;100.00;98828.09;4976037;28;20034;-69
2021/06/23 04:23:48;;;;;;;7.30;4.40;;;;;;;15.68;100.00;98827.22;4975958;28;20019;-69
2021/06/23 04:26:14;;;;;;;9.77;4.53;;;;;;;15.74;100.00;98832.22;4967088;28;20373;-69
2021/06/23 04:28:39;;;;;;;6.20;5.18;;;;;;;15.68;100.00;98833.31;4951733;28;20392;-68
2021/06/23 04:31:04;;;;;;;7.88;5.40;;;;;;;15.78;100.00;98840.78;4945009;28;20023;-70
2021/06/23 04:33:29;;;;;;;11.73;6.22;;;;;;;15.85;100.00;98840.47;4947696;29;20388;-70
2021/06/23 04:35:55;;;;;;;6.75;5.35;;;;;;;15.96;100.00;98837.47;4941789;29;20057;-70
2021/06/23 04:38:21;;;;;;;8.43;6.20;;;;;;;16.06;100.00;98838.81;4947544;29;20023;-70
2021/06/23 04:40:46;;;;;;;13.30;6.43;;;;;;;16.15;100.00;98833.22;4947192;28;20062;-70
2021/06/23 04:43:12;;;;;;;8.23;7.22;;;;;;;16.24;100.00;98823.31;4941671;28;20036;-70
2021/06/23 04:45:37;;;;;;;10.98;7.32;;;;;;;16.34;100.00;98825.50;4941651;28;20114;-70
2021/06/23 04:48:03;;;;;;;10.70;7.55;;;;;;;16.50;100.00;98822.25;4947080;28;20046;-70
2021/06/23 04:50:29;;;;;;;16.90;9.18;;;;;;;16.46;100.00;98832.00;4943262;29;20031;-70
2021/06/23 04:52:54;;;;;;;12.98;7.88;;;;;;;16.44;100.00;98831.22;4941657;29;20503;-70
2021/06/23 04:55:19;;;;;;;9.05;7.80;;;;;;;16.33;100.00;98836.00;4945246;28;20110;-70
2021/06/23 04:57:45;;;;;;;12.55;8.27;;;;;;;16.24;100.00;98841.59;4941282;28;20059;-70
2021/06/23 05:00:11;;;;;;;8.82;7.57;;;;;;;16.25;100.00;98853.78;4941376;29;20027;-70
2021/06/23 05:02:37;;;;;;;10.65;7.25;;;;;;;16.59;100.00;98837.56;4947292;29;20035;-70
2021/06/23 05:05:03;;;;;;;8.57;6.82;;;;;;;16.79;100.00;98849.84;4947087;29;20034;-70
2021/06/23 05:07:29;;;;;;;11.63;6.85;;;;;;;16.70;100.00;98851.06;4941054;28;20042;-70
2021/06/23 05:09:54;;;;;;;8.85;6.80;;;;;;;16.86;100.00;98853.91;4941034;29;20059;-70
2021/06/23 05:12:22;;;;;;;8.65;6.57;;;;;;;16.73;100.00;98860.56;4946300;28;20023;-70
2021/06/23 05:14:47;;;;;;;12.10;7.00;;;;;;;16.80;100.00;98852.41;4941323;28;20019;-70
2021/06/23 05:17:13;;;;;;;10.32;6.32;;;;;;;16.75;100.00;98853.50;4946507;28;20443;-70
2021/06/23 05:19:39;;;;;;;9.13;5.60;;;;;;;16.87;100.00;98852.97;4946899;28;20118;-70
2021/06/23 05:22:04;;;;;;;11.90;5.85;;;;;;;16.96;100.00;98847.34;4946909;29;20183;-70
2021/06/23 05:24:31;;;;;;;7.05;5.03;;;;;;;17.08;99.57;98849.47;4942458;28;20038;-70
2021/06/23 05:26:57;;;;;;;6.90;4.72;;;;;;;17.18;97.93;98848.13;4941856;28;20038;-70
2021/06/23 05:29:22;;;;;;;5.13;4.63;;;;;;;17.56;95.91;98858.69;4940699;29;20023;-70
2021/06/23 05:31:47;;;;;;;4.60;4.05;;;;;;;17.80;94.51;98866.41;4946801;29;20035;-70
2021/06/23 05:34:13;;;;;;;3.67;3.35;;;;;;;17.92;93.55;98873.69;4940777;28;20477;-70
2021/06/23 05:36:38;;;;;;;7.10;4.22;;;;;;;17.69;94.89;98880.78;4942789;29;20130;-70
2021/06/23 05:39:04;;;;;;;5.05;3.72;;;;;;;17.70;94.59;98890.38;4946601;28;20151;-70
2021/06/23 05:41:29;;;;;;;7.50;4.60;;;;;;;17.63;95.01;98891.53;4946107;28;20038;-70
2021/06/23 05:43:55;;;;;;;4.72;4.28;;;;;;;17.65;95.70;98886.25;4946328;28;20042;-71
2021/06/23 05:46:20;;;;;;;4.60;4.20;;;;;;;17.93;95.29;98891.09;4943339;28;20035;-70
2021/06/23 05:48:46;;;;;;;7.30;4.90;;;;;;;18.01;93.78;98881.13;4946810;29;20035;-71
2021/06/23 05:51:11;;;;;;;5.88;5.25;;;;;;;17.91;94.82;98879.84;4940599;29;20027;-71
2021/06/23 05:53:37;;;;;;;5.90;5.32;;;;;;;17.79;96.02;98890.88;4946417;28;20469;-70
2021/06/23 05:56:02;;;;;;;7.63;4.95;;;;;;;17.73;95.59;98889.41;4942276;28;20058;-70
2021/06/23 05:58:28;;;;;;;9.43;5.30;;;;;;;17.67;95.28;98889.66;4942202;28;20123;-70
2021/06/23 06:00:53;;;;;;;8.73;4.72;;;;;;;17.88;97.59;98890.47;4945355;28;20205;-70
2021/06/23 06:03:19;;;;;;;12.13;5.03;;;;;;;18.08;94.14;98893.00;4940726;28;21400;-70
2021/06/23 06:05:46;;;;;;;7.13;4.25;;;;;;;18.09;93.12;98899.97;4944427;28;20063;-70
2021/06/23 06:08:11;;;;;;;5.05;4.45;;;;;;;18.13;94.80;98906.78;4945883;28;20094;-70
2021/06/23 06:10:36;;;;;;;4.32;3.63;;;;;;;17.90;92.91;98893.88;4942136;28;20062;-70
2021/06/23 06:13:03;;;;;;;8.10;3.33;;;;;;;18.10;90.63;98893.81;4944964;28;20705;-70
2021/06/23 06:15:28;;;;;;;7.15;3.22;;;;;;;18.43;91.63;98895.75;4942174;29;20035;-70
2021/06/23 06:17:59;;;;;;;4.22;2.50;;;;;;;18.56;90.11;98896.84;4942080;28;20046;-70
2021/06/23 06:20:24;;;;;;;6.15;3.03;;;;;;;18.81;88.12;98903.53;4939730;28;20114;-70
2021/06/23 06:22:50;;;;;;;3.63;2.90;;;;;;;18.63;89.62;98911.38;4944316;28;20970;-70
2021/06/23 06:25:15;;;;;;;4.53;2.40;;;;;;;18.83;88.47;98902.56;4941649;28;20082;-70
2021/06/23 06:27:40;;;;;;;4.97;2.75;;;;;;;19.17;85.59;98906.97;4941078;29;20039;-70
2021/06/23 06:30:06;;;;;;;2.20;2.03;;;;;;;19.80;84.25;98900.25;4941234;29;20038;-70
2021/06/23 06:32:31;;;;;;;5.38;1.50;;;;;;;20.12;78.23;98896.72;4943945;29;20376;-70
2021/06/23 06:34:57;;;;;;;4.88;1.58;;;;;;;20.52;76.11;98899.78;4942751;29;20045;-70
2021/06/23 06:37:22;;;;;;;7.50;1.85;;;;;;;20.23;79.14;98907.50;4945240;28;20030;-70
2021/06/23 06:39:47;;;;;;;1.42;1.00;;;;;;;19.88;74.08;98908.56;4943968;28;20031;-70
2021/06/23 06:42:13;;;;;;;1.58;1.30;;;;;;;19.94;76.49;98913.50;4942312;29;20121;-70
2021/06/23 06:44:38;;;;;;;1.90;1.00;;;;;;;20.36;73.64;98909.44;4945486;28;20350;-70
2021/06/23 06:47:04;;;;;;;1.60;1.13;;;;;;;20.36;71.90;98914.72;4945202;28;20043;-70
2021/06/23 06:49:30;;;;;;;3.28;1.00;;;;;;;20.57;71.93;98910.91;4944382;28;20124;-70
2021/06/23 06:51:58;;;;;;;3.67;1.48;;;;;;;20.38;73.93;98902.31;4945422;29;20039;-70
2021/06/23 06:54:27;;;;;;;3.63;1.65;;;;;;;20.12;77.94;98912.50;4942460;28;20037;-70
2021/06/23 06:56:53;;;;;;;1.98;1.77;;;;;;;19.95;79.51;98912.56;4943661;28;20251;-70
2021/06/23 06:59:19;;;;;;;3.95;1.90;;;;;;;20.05;79.32;98913.75;4944757;28;20031;-71
2021/06/23 07:01:45;;;;;;;3.13;2.35;;;;;;;20.48;78.69;98914.88;4941035;28;20094;-70
2021/06/23 07:04:11;;;;;;;3.10;2.00;;;;;;;20.47;78.42;98912.34;4945274;29;20276;-70
2021/06/23 07:06:36;;;;;;;5.18;2.40;;;;;;;20.50;79.06;98912.16;4935275;28;20488;-71
2021/06/23 07:09:02;;;;;;;5.72;1.70;;;;;;;20.92;75.53;98918.56;4945278;29;20062;-71
2021/06/23 07:11:27;;;;;;;2.88;1.98;;;;;;;22.44;70.31;98907.56;4940341;29;20031;-70
2021/06/23 07:13:53;;;;;;;2.63;1.60;;;;;;;24.21;64.05;98914.00;4945290;28;20062;-70
2021/06/23 07:16:19;;;;;;;2.13;1.30;;;;;;;24.69;60.77;98914.06;4941747;28;21403;-71
2021/06/23 07:18:45;;;;;;;4.63;1.33;;;;;;;24.19;59.68;98920.38;4945010;29;20058;-71
2021/06/23 07:21:16;;;;;;;1.60;1.20;;;;;;;25.45;58.36;98915.44;4940077;29;20032;-71
2021/06/23 07:23:41;;;;;;;1.10;1.00;;;;;;;27.28;52.15;98917.59;4944641;28;20110;-71
2021/06/23 07:26:07;;;;;;;2.30;0.90;;;;;;;28.71;49.35;98922.78;4941978;28;20042;-71
2021/06/23 07:29:15;;;;;;;1.27;1.00;;;;;;;29.18;48.41;98915.81;4942742;29;20440;-71
2021/06/23 07:33:59;;;;;;;0.82;0.60;;;;;;;30.37;41.74;98930.38;4941444;28;20508;-71
2021/06/23 07:36:34;;;;;;;1.27;0.80;;;;;;;29.80;39.85;98931.44;4941770;28;20093;-71
2021/06/23 07:38:59;;;;;;;0.75;0.70;;;;;;;29.96;41.06;98923.66;4945070;29;20038;-71
2021/06/23 07:41:24;;;;;;;2.55;0.57;;;;;;;29.22;42.09;98926.22;4939753;29;20051;-71
2021/06/23 07:43:50;;;;;;;4.53;3.95;;;;;;;30.84;39.25;98926.69;4940949;28;20024;-71
2021/06/23 07:46:16;;;;;;;7.05;0.80;;;;;;;26.23;47.77;98930.56;4941235;28;20118;-71
2021/06/23 07:48:42;;;;;;;2.97;0.98;;;;;;;27.54;48.58;98915.34;4943102;29;20081;-71
2021/06/23 07:51:11;;;;;;;0.82;0.73;;;;;;;29.64;42.90;98908.00;4939945;28;20547;-70
2021/06/23 07:56:23;;;;;;;3.53;0.80;;;;;;;30.44;40.82;98915.41;4944470;29;20035;-71
2021/06/23 08:09:38;;;;;;;2.55;0.80;;;;;;;30.97;39.66;98921.81;4947218;29;20038;-71
2021/06/23 08:14:39;;;;;;;4.85;0.70;;;;;;;30.30;38.74;98918.56;4944210;29;20023;-71
2021/06/23 08:17:05;;;;;;;2.42;0.95;;;;;;;32.71;36.98;98913.59;4942991;28;20035;-70
2021/06/23 08:19:30;;;;;;;2.42;0.60;;;;;;;32.46;35.71;98916.22;4946840;29;20035;-71
2021/06/23 08:21:56;;;;;;;3.80;0.70;;;;;;;33.55;33.09;98911.59;4947924;29;20491;-73
2021/06/23 08:24:21;;;;;;;1.75;0.60;;;;;;;31.58;34.38;98914.78;4941883;29;20114;-73
2021/06/23 08:26:47;;;;;;;1.90;0.52;;;;;;;32.65;32.69;98908.88;4947302;28;20031;-73
2021/06/23 08:29:12;;;;;;;0.90;0.60;;;;;;;32.42;34.40;98901.44;4943345;28;20030;-74
2021/06/23 08:31:38;;;;;;;1.90;0.50;;;;;;;31.88;31.63;98906.25;4944745;28;20066;-73
2021/06/23 08:34:03;;;;;;;1.65;0.68;;;;;;;32.27;35.03;98913.78;4944182;28;20681;-73
2021/06/23 08:36:28;;;;;;;0.60;0.60;;;;;;;33.84;30.73;98911.03;4942607;29;20441;-73
2021/06/23 08:38:54;;;;;;;2.92;2.20;;;;;;;34.00;30.53;98906.47;4943104;29;20400;-73
2021/06/23 08:41:26;;;;;;;0.98;0.65;;;;;;;34.47;29.17;98908.25;4945879;29;20090;-73
2021/06/23 08:43:53;;;;;;;1.95;0.60;;;;;;;33.91;29.93;98902.09;4944396;29;20032;-73
2021/06/23 08:46:18;;;;;;;0.77;0.52;;;;;;;33.12;32.48;98900.19;4940142;28;21030;-73
2021/06/23 08:48:43;;;;;;;0.77;0.65;;;;;;;34.19;29.96;98899.84;4942845;29;20381;-73
2021/06/23 08:51:09;;;;;;;3.83;0.60;;;;;;;34.14;30.31;98896.00;4943170;28;20413;-73
2021/06/23 08:53:35;;;;;;;0.60;0.60;;;;;;;34.12;32.30;98892.63;4947793;28;20027;-71
2021/06/23 08:56:02;;;;;;;0.60;0.52;;;;;;;35.37;27.56;98894.13;4943565;28;20027;-71
2021/06/23 08:58:27;;;;;;;1.05;0.65;;;;;;;31.99;32.53;98897.06;4947108;29;20042;-70
2021/06/23 09:00:53;;;;;;;1.60;0.45;;;;;;;32.26;32.37;98882.59;4947403;28;21427;-71
2021/06/23 09:03:18;;;;;;;1.23;0.45;;;;;;;30.85;35.92;98889.09;4947339;28;20038;-70
2021/06/23 09:05:53;;;;;;;1.05;0.50;;;;;;;30.76;37.86;98890.00;4945760;28;20400;-70
2021/06/23 09:08:35;;;;;;;9.02;5.13;;;;;;;33.16;32.52;98878.22;4940979;29;20050;-70
2021/06/23 09:11:02;;;;;;;3.00;1.10;;;;;;;33.87;30.51;98881.94;4947317;29;20187;-71
2021/06/23 09:13:28;;;;;;;2.20;0.80;;;;;;;34.35;30.02;98885.44;4941292;28;21074;-71
2021/06/23 09:16:02;;;;;;;0.40;0.40;;;;;;;34.41;30.15;98882.03;4946406;28;20052;-71
2021/06/23 09:18:34;;;;;;;2.25;0.50;;;;;;;33.77;29.96;98873.25;4946603;29;20102;-71
2021/06/23 09:21:05;;;;;;;2.58;0.50;;;;;;;30.80;35.05;98875.34;4946961;29;20027;-70
2021/06/23 09:23:42;;;;;;;1.38;0.50;;;;;;;30.05;37.56;98882.66;4946922;29;20031;-70
2021/06/23 09:26:12;;;;;;;1.42;0.40;;;;;;;31.74;31.44;98866.63;4941066;28;20059;-71
2021/06/23 09:28:37;;;;;;;0.80;0.57;;;;;;;30.63;32.32;98871.63;4946867;29;20078;-70
2021/06/23 09:31:06;;;;;;;0.77;0.40;;;;;;;29.45;37.47;98874.19;4946859;28;20437;-70
2021/06/23 09:33:31;;;;;;;1.17;0.50;;;;;;;32.13;32.98;98874.19;4943003;29;20023;-70
2021/06/23 09:36:00;;;;;;;2.53;0.40;;;;;;;33.50;30.43;98869.13;4942534;28;20131;-69
2021/06/23 09:38:28;;;;;;;0.52;0.30;;;;;;;33.91;29.87;98872.53;4939607;29;20138;-70
2021/06/23 09:40:54;;;;;;;2.03;0.30;;;;;;;34.46;29.02;98868.91;4940778;28;20121;-69
2021/06/23 09:43:19;;;;;;;0.38;0.38;;;;;;;33.98;28.17;98870.81;4940436;29;20107;-69
2021/06/23 09:45:52;;;;;;;0.95;0.43;;;;;;;32.89;29.41;98867.81;4941899;28;20383;-69
2021/06/23 09:48:17;;;;;;;4.07;0.55;;;;;;;28.90;36.98;98864.13;4946139;29;20130;-69
2021/06/23 09:50:43;;;;;;;0.82;0.40;;;;;;;32.89;31.23;98868.63;4946373;28;20702;-69
2021/06/23 09:53:13;;;;;;;1.08;0.60;;;;;;;33.75;30.31;98862.69;4946577;28;21067;-69
2021/06/23 09:55:48;;;;;;;1.42;0.47;;;;;;;32.68;31.13;98865.59;4941609;28;20064;-69
2021/06/23 09:58:19;;;;;;;1.05;0.50;;;;;;;33.72;29.00;98859.50;4946119;28;20522;-70
2021/06/23 10:01:11;;;;;;;0.50;0.30;;;;;;;34.29;27.38;98871.88;4955576;28;20056;-69
2021/06/23 10:03:58;;;;;;;0.60;0.40;;;;;;;34.49;27.75;98863.19;4940019;28;20110;-71
2021/06/23 10:06:37;;;;;;;1.98;0.40;;;;;;;31.21;30.31;98867.63;4942779;29;20043;-70
2021/06/23 10:09:25;;;;;;;0.22;0.20;;;;;;;34.77;26.13;98860.81;4946418;29;20066;-69
2021/06/23 10:11:56;;;;;;;0.30;0.30;;;;;;;33.98;26.84;98865.44;4933756;29;20031;-70
2021/06/23 10:14:23;;;;;;;1.05;0.47;;;;;;;33.11;28.72;98851.03;4940173;28;20023;-74
2021/06/23 10:16:50;;;;;;;0.93;0.40;;;;;;;34.47;27.45;98851.75;4941500;28;20300;-69
2021/06/23 10:19:16;;;;;;;0.50;0.40;;;;;;;34.08;28.09;98848.25;4944615;29;20069;-73
2021/06/23 10:21:42;;;;;;;0.57;0.30;;;;;;;32.94;29.20;98850.22;4941020;29;20709;-69
2021/06/23 10:24:09;;;;;;;0.68;0.60;;;;;;;32.05;30.56;98847.31;4945663;29;20027;-74
2021/06/23 10:26:38;;;;;;;2.55;0.50;;;;;;;32.32;30.59;98833.66;4944567;29;20062;-74
2021/06/23 10:29:06;;;;;;;0.32;0.32;;;;;;;32.19;29.53;98838.66;4945405;28;20035;-73
2021/06/23 10:31:32;;;;;;;0.45;0.45;;;;;;;31.92;33.76;98832.56;4994168;23;20047;-70
2021/06/23 10:33:58;;;;;;;0.63;0.45;;;;;;;33.22;33.59;98825.69;4958782;28;20086;-70
2021/06/23 10:36:24;;;;;;;0.47;0.47;;;;;;;34.04;30.19;98822.72;4958686;28;20034;-71
2021/06/23 10:38:51;;;;;;;0.57;0.40;;;;;;;34.39;29.85;98821.34;4958896;28;20018;-70
2021/06/23 10:41:17;;;;;;;0.35;0.35;;;;;;;33.99;29.23;98823.25;4958838;28;20110;-70
2021/06/23 10:43:43;;;;;;;0.80;0.60;;;;;;;33.21;28.52;98823.97;4958941;28;20075;-70
2021/06/23 10:46:10;;;;;;;0.90;0.30;;;;;;;35.03;27.85;98817.34;4958694;28;20146;-70
2021/06/23 10:48:54;;;;;;;1.40;0.57;;;;;;;34.50;28.91;98816.41;4958675;28;20030;-71
2021/06/23 10:51:25;;;;;;;0.43;0.40;;;;;;;35.77;24.92;98813.84;4958785;28;20027;-70
2021/06/23 10:53:51;;;;;;;1.02;0.40;;;;;;;34.97;26.43;98812.69;4959020;28;20027;-73
2021/06/23 10:56:43;;;;;;;0.27;0.20;;;;;;;35.15;25.15;98814.19;4958400;28;20027;-71
2021/06/23 10:59:34;;;;;;;0.93;0.32;;;;;;;34.52;25.94;98816.22;4958455;28;20278;-70
2021/06/23 11:02:06;;;;;;;0.50;0.40;;;;;;;32.09;29.57;98816.50;4958636;28;20023;-70
2021/06/23 11:04:51;;;;;;;2.28;0.40;;;;;;;31.33;31.07;98820.88;4958305;28;20489;-69
2021/06/23 11:07:51;;;;;;;0.30;0.30;;;;;;;33.09;30.39;98820.00;4958629;28;20038;-69
2021/06/23 11:10:18;;;;;;;0.32;0.32;;;;;;;35.52;25.83;98822.22;4956865;28;20066;-69
2021/06/23 11:15:11;;;;;;;0.30;0.30;;;;;;;33.63;27.22;98833.66;4958402;28;20048;-69
2021/06/23 11:17:36;;;;;;;0.73;0.35;;;;;;;31.36;29.44;98836.59;4958220;28;20290;-69
2021/06/23 11:20:03;;;;;;;2.63;0.40;;;;;;;34.81;26.86;98828.09;4958806;28;20034;-69
2021/06/23 11:22:35;;;;;;;0.85;0.50;;;;;;;32.59;28.48;98829.88;4958441;28;20033;-69
2021/06/23 11:25:28;;;;;;;0.57;0.38;;;;;;;31.74;30.72;98824.56;4958366;28;20038;-69
2021/06/23 11:28:09;;;;;;;0.25;0.25;;;;;;;31.29;31.84;98822.19;4958016;28;20501;-69
2021/06/23 11:30:44;;;;;;;0.40;0.40;;;;;;;30.68;34.92;98826.53;4958165;28;20038;-69
2021/06/23 11:33:36;;;;;;;0.60;0.40;;;;;;;30.63;34.08;98822.63;4958451;28;20105;-69
2021/06/23 11:36:16;;;;;;;2.15;0.40;;;;;;;28.48;37.46;98838.72;4957965;28;20466;-69
2021/06/23 11:38:42;;;;;;;0.73;0.63;;;;;;;29.77;35.31;98830.22;4958184;28;20396;-69
2021/06/23 11:41:10;;;;;;;0.82;0.40;;;;;;;32.28;31.12;98808.16;4961115;28;20037;-69
2021/06/23 11:43:35;;;;;;;0.75;0.30;;;;;;;31.93;31.34;98807.44;4962054;28;20657;-69
2021/06/23 11:46:01;;;;;;;2.22;0.35;;;;;;;32.58;27.98;98797.84;4961977;28;20035;-69
2021/06/23 11:48:26;;;;;;;0.40;0.30;;;;;;;31.79;28.85;98802.66;4961892;28;20492;-69
2021/06/23 11:50:53;;;;;;;0.30;0.30;;;;;;;33.96;26.95;98802.13;4962061;28;20027;-69
2021/06/23 11:53:20;;;;;;;1.98;0.30;;;;;;;33.09;28.87;98793.13;4961845;28;20582;-69
2021/06/23 11:55:47;;;;;;;0.30;0.15;;;;;;;30.50;31.11;98800.78;4962039;28;20404;-69
2021/06/23 11:58:13;;;;;;;0.20;0.20;;;;;;;30.05;33.52;98801.66;4961600;28;20077;-70
2021/06/23 12:00:40;;;;;;;0.43;0.20;;;;;;;29.90;32.69;98804.84;4961782;28;21326;-68
2021/06/23 12:03:10;;;;;;;0.73;0.30;;;;;;;30.14;32.08;98800.78;4961754;28;20643;-68
2021/06/23 12:05:37;;;;;;;0.30;0.30;;;;;;;29.81;33.50;98800.38;4961465;28;20031;-68
2021/06/23 12:08:03;;;;;;;0.57;0.22;;;;;;;29.67;34.66;98804.38;4961404;28;20488;-71
2021/06/23 12:10:30;;;;;;;0.40;0.40;;;;;;;30.12;33.89;98800.91;4961602;28;20040;-71
2021/06/23 12:12:56;;;;;;;0.95;0.60;;;;;;;30.68;33.66;98793.59;4961703;28;21346;-71
2021/06/23 12:15:23;;;;;;;0.93;0.43;;;;;;;29.37;37.65;98792.13;4961380;28;20506;-68
2021/06/23 12:17:51;;;;;;;1.50;0.80;;;;;;;29.44;38.24;98787.88;4961683;28;20638;-68
2021/06/23 12:20:18;;;;;;;0.60;0.50;;;;;;;29.43;34.50;98785.34;4961414;28;20030;-70
2021/06/23 12:22:44;;;;;;;1.30;0.38;;;;;;;29.60;35.77;98781.09;4961262;28;20033;-70
2021/06/23 12:25:11;;;;;;;0.50;0.38;;;;;;;29.61;34.58;98782.78;4960581;28;20035;-71
2021/06/23 12:27:38;;;;;;;0.57;0.32;;;;;;;29.32;35.42;98783.72;4960456;28;20038;-71
2021/06/23 12:30:06;;;;;;;0.30;0.30;;;;;;;28.48;35.61;98777.41;4961174;28;20054;-70
2021/06/23 12:32:31;;;;;;;0.43;0.43;;;;;;;27.76;39.02;98774.09;4961305;28;20125;-70
2021/06/23 12:34:57;;;;;;;0.30;0.30;;;;;;;27.70;40.38;98771.91;4960910;28;20027;-70
2021/06/23 12:37:22;;;;;;;8.90;1.10;;;;;;;28.23;39.02;98762.78;4960277;28;20387;-71
2021/06/23 12:39:47;;;;;;;0.47;0.47;;;;;;;28.59;39.02;98770.09;4961081;28;20507;-69
2021/06/23 12:42:13;;;;;;;0.40;0.40;;;;;;;28.56;38.91;98774.88;4960981;28;20078;-69
2021/06/23 12:44:39;;;;;;;0.40;0.40;;;;;;;27.92;37.53;98778.88;4960907;28;20030;-69
2021/06/23 12:47:05;;;;;;;0.25;0.25;;;;;;;27.58;39.22;98773.00;4960719;28;20433;-69
2021/06/23 12:49:31;;;;;;;0.68;0.50;;;;;;;28.91;36.13;98769.78;4960836;28;20033;-69
2021/06/23 12:51:58;;;;;;;0.90;0.40;;;;;;;29.00;36.67;98767.25;4960824;28;20440;-69
2021/06/23 12:54:24;;;;;;;1.13;0.35;;;;;;;28.06;38.69;98769.66;4960993;28;20724;-69
2021/06/23 12:56:50;;;;;;;0.40;0.32;;;;;;;27.32;39.93;98764.63;4960669;28;20452;-70
2021/06/23 12:59:15;;;;;;;0.85;0.60;;;;;;;27.38;40.97;98762.31;4960702;28;20023;-71
2021/06/23 13:01:41;;;;;;;1.92;0.60;;;;;;;27.04;40.41;98766.19;4960660;28;20035;-70
2021/06/23 13:04:06;;;;;;;3.33;0.50;;;;;;;27.10;39.97;98760.34;4960571;28;20062;-70
2021/06/23 13:06:31;;;;;;;0.40;0.40;;;;;;;27.64;39.16;98756.50;4960586;28;20488;-70
2021/06/23 13:08:57;;;;;;;1.52;0.30;;;;;;;28.25;36.59;98756.34;4960730;28;20042;-68
2021/06/23 13:11:22;;;;;;;0.40;0.40;;;;;;;27.62;38.56;98764.63;4960510;28;20045;-69
2021/06/23 13:13:47;;;;;;;0.38;0.38;;;;;;;27.59;38.89;98769.38;4960579;28;20439;-70
2021/06/23 13:16:17;;;;;;;0.60;0.60;;;;;;;27.48;38.81;98761.50;4960264;28;20027;-71
2021/06/23 13:18:44;;;;;;;0.77;0.35;;;;;;;27.57;37.56;98760.69;4960486;28;20451;-71
2021/06/23 13:21:10;;;;;;;0.95;0.40;;;;;;;27.86;38.65;98756.31;4960326;28;20598;-71
2021/06/23 13:23:35;;;;;;;0.52;0.43;;;;;;;28.23;38.31;98752.13;4960315;28;20071;-70
2021/06/23 13:26:01;;;;;;;0.40;0.40;;;;;;;28.59;36.58;98746.09;4960263;28;20149;-69
2021/06/23 13:28:26;;;;;;;2.08;0.40;;;;;;;28.77;36.46;98746.22;4958910;28;20150;-71
2021/06/23 13:30:52;;;;;;;2.78;0.40;;;;;;;28.54;37.76;98752.84;4960151;28;20381;-70
2021/06/23 13:33:17;;;;;;;0.52;0.52;;;;;;;28.78;39.02;98747.06;4959959;28;20456;-71
2021/06/23 13:35:43;;;;;;;1.52;0.70;;;;;;;28.21;38.83;98749.59;4960137;28;20025;-68
2021/06/23 13:38:08;;;;;;;0.40;0.40;;;;;;;28.19;39.21;98751.56;4959958;28;20400;-69
2021/06/23 13:40:33;;;;;;;2.80;0.57;;;;;;;28.80;37.90;98745.91;4959993;28;20027;-70
2021/06/23 13:42:59;;;;;;;0.93;0.63;;;;;;;26.80;40.64;98751.34;4953989;28;20026;-70
2021/06/23 13:45:24;;;;;;;3.60;0.50;;;;;;;27.67;39.78;98754.41;4959991;28;20397;-71
2021/06/23 13:47:50;;;;;;;0.40;0.40;;;;;;;26.90;38.65;98757.56;4959587;28;20081;-69
2021/06/23 13:50:18;;;;;;;0.30;0.30;;;;;;;28.14;39.32;98753.78;4959853;28;20053;-71
2021/06/23 13:52:44;;;;;;;3.00;0.85;;;;;;;28.33;39.11;98753.78;4959637;28;20035;-71
2021/06/23 13:55:11;;;;;;;5.53;0.60;;;;;;;28.94;37.01;98747.28;4959038;28;20023;-71
2021/06/23 13:57:39;;;;;;;1.00;0.60;;;;;;;29.11;37.00;98751.06;4959765;28;20026;-73
2021/06/23 14:00:09;;;;;;;0.52;0.52;;;;;;;28.96;38.56;98739.16;4959695;28;20023;-77
2021/06/23 14:02:35;;;;;;;0.68;0.32;;;;;;;28.12;40.89;98742.44;4959177;28;20039;-76
2021/06/23 14:05:01;;;;;;;2.70;0.77;;;;;;;28.78;41.37;98736.41;4959779;28;20479;-70
2021/06/23 14:07:26;;;;;;;3.42;1.38;;;;;;;27.66;47.26;98727.94;4959402;28;20054;-79
2021/06/23 14:09:51;;;;;;;5.28;1.20;;;;;;;27.18;47.70;98725.97;4959617;28;20492;-72
2021/06/23 14:12:17;;;;;;;2.30;1.25;;;;;;;27.04;49.35;98723.63;4959444;28;20034;-69
2021/06/23 14:14:42;;;;;;;4.38;1.20;;;;;;;26.49;51.50;98725.66;4959519;28;20055;-70
2021/06/23 14:17:07;;;;;;;5.18;1.38;;;;;;;25.72;53.23;98731.09;4959201;28;20046;-74
2021/06/23 14:19:33;;;;;;;1.40;1.30;;;;;;;24.86;55.43;98728.13;4959343;28;20026;-74
2021/06/23 14:21:58;;;;;;;9.10;1.55;;;;;;;24.91;56.41;98732.22;4959269;28;20132;-75
2021/06/23 14:24:24;;;;;;;1.67;1.50;;;;;;;25.62;53.98;98736.28;4959295;28;20049;-72
2021/06/23 14:26:50;;;;;;;3.78;1.85;;;;;;;26.13;53.14;98741.88;4959066;28;20510;-72
2021/06/23 14:29:16;;;;;;;3.55;1.40;;;;;;;24.82;55.69;98758.47;4959414;28;20042;-72
2021/06/23 14:31:41;;;;;;;2.88;1.58;;;;;;;24.45;56.81;98743.69;4958955;28;20469;-75
2021/06/23 14:34:08;;;;;;;10.23;2.40;;;;;;;24.81;57.43;98734.75;4959192;28;20022;-72
2021/06/23 14:36:34;;;;;;;8.40;2.38;;;;;;;25.10;56.74;98737.81;4958982;28;20088;-70
2021/06/23 14:39:00;;;;;;;14.40;3.40;;;;;;;25.17;56.09;98733.69;4959256;28;20413;-72
2021/06/23 14:41:27;;;;;;;6.15;2.58;;;;;;;24.67;56.77;98733.16;4958986;28;20132;-72
2021/06/23 14:43:52;;;;;;;17.23;3.03;;;;;;;25.21;56.72;98724.53;4958953;28;20039;-72
2021/06/23 14:46:17;;;;;;;9.88;3.08;;;;;;;25.51;56.03;98728.38;4958685;28;20031;-72
2021/06/23 14:48:43;;;;;;;6.07;1.70;;;;;;;25.34;55.42;98719.97;4959020;28;20719;-69
2021/06/23 14:51:08;;;;;;;3.20;1.92;;;;;;;25.60;53.72;98717.84;4958423;28;20507;-72
2021/06/23 14:53:34;;;;;;;4.53;1.52;;;;;;;25.13;56.60;98711.03;4956883;28;20034;-72
2021/06/23 14:56:00;;;;;;;3.15;1.58;;;;;;;25.33;56.11;98710.28;4957007;28;20027;-72
2021/06/23 14:58:25;;;;;;;2.83;1.40;;;;;;;25.93;54.97;98702.00;4958204;28;20510;-72
2021/06/23 15:00:50;;;;;;;6.93;1.52;;;;;;;26.33;52.82;98703.00;4958386;28;20045;-72
2021/06/23 15:03:16;;;;;;;2.08;1.77;;;;;;;26.25;54.97;98700.16;4958680;28;20058;-72
2021/06/23 15:05:41;;;;;;;5.35;1.73;;;;;;;25.28;56.33;98707.16;4958613;28;20206;-75
2021/06/23 15:08:06;;;;;;;4.93;2.13;;;;;;;24.17;59.97;98697.19;4958316;28;20051;-75
2021/06/23 15:10:32;;;;;;;2.00;1.60;;;;;;;24.90;58.41;98706.66;4958338;28;20480;-72
2021/06/23 15:12:57;;;;;;;2.42;1.75;;;;;;;25.26;57.72;98702.97;4958531;28;20027;-69
2021/06/23 15:15:23;;;;;;;3.13;1.90;;;;;;;25.81;56.24;98696.72;4958783;28;20026;-73
2021/06/23 15:17:48;;;;;;;3.20;2.30;;;;;;;25.38;56.39;98697.53;4962228;28;20027;-69
2021/06/23 15:20:14;;;;;;;3.13;1.75;;;;;;;25.55;55.86;98692.66;4962333;28;20027;-69
2021/06/23 15:22:41;;;;;;;3.08;1.80;;;;;;;25.52;56.23;98687.59;4962350;28;20030;-69
2021/06/23 15:25:08;;;;;;;7.25;1.70;;;;;;;25.45;57.73;98686.41;4962301;28;20031;-69
2021/06/23 15:27:35;;;;;;;1.75;1.65;;;;;;;25.38;56.32;98692.22;4962277;28;20033;-69
2021/06/23 15:30:01;;;;;;;4.30;1.92;;;;;;;24.43;58.47;98685.53;4962122;28;21107;-70
2021/06/23 15:32:27;;;;;;;1.83;1.65;;;;;;;24.53;58.69;98683.00;4962844;28;20035;-70
2021/06/23 15:34:52;;;;;;;2.78;1.65;;;;;;;24.47;59.08;98678.19;4961548;28;20026;-70
2021/06/23 15:37:17;;;;;;;2.53;1.70;;;;;;;24.51;59.71;98679.63;4962164;28;20030;-70
2021/06/23 15:39:43;;;;;;;4.20;1.70;;;;;;;24.25;59.82;98677.13;4962198;28;20049;-70
2021/06/23 15:42:09;;;;;;;1.70;1.60;;;;;;;24.05;59.70;98669.84;4962338;28;20031;-72
2021/06/23 15:44:38;;;;;;;3.75;1.60;;;;;;;23.99;60.70;98668.50;4961962;28;20046;-71
2021/06/23 15:47:05;;;;;;;1.63;1.52;;;;;;;24.26;58.86;98670.03;4961371;28;20035;-71
2021/06/23 15:49:30;;;;;;;1.70;1.60;;;;;;;24.07;59.05;98675.88;4962220;28;20038;-75
2021/06/23 15:51:56;;;;;;;1.67;1.58;;;;;;;24.04;60.34;98661.06;4962021;28;20408;-73
2021/06/23 15:54:21;;;;;;;4.78;2.10;;;;;;;24.01;60.94;98644.56;4961837;28;20035;-74
2021/06/23 15:56:46;;;;;;;2.05;1.88;;;;;;;23.82;60.21;98645.94;4961888;28;20031;-73
2021/06/23 15:59:12;;;;;;;4.00;1.85;;;;;;;24.08;59.12;98651.09;4961690;28;20027;-73
2021/06/23 16:01:37;;;;;;;2.20;1.70;;;;;;;23.99;59.92;98670.31;4961989;28;20035;-73
2021/06/23 16:04:03;;;;;;;3.03;2.20;;;;;;;23.65;60.98;98667.53;4961835;28;20035;-72
2021/06/23 16:06:28;;;;;;;2.80;1.95;;;;;;;23.48;60.80;98646.69;4961731;28;20033;-72
2021/06/23 16:08:54;;;;;;;5.78;1.90;;;;;;;23.42;61.91;98641.88;4961660;28;20042;-72